sensor_id;sensor_type;location;lat;lon;timestamp;P1;durP1;ratioP1;P2;durP2;ratioP2
5147;SDS011;2592;48.140;7.614;2023-02-08T00:01:41;17.37;;;13.97;;
5147;SDS011;2592;48.140;7.614;2023-02-08T00:04:08;19.87;;;14.37;;
5147;SDS011;2592;48.140;7.614;2023-02-08T00:06:34;18.70;;;15.10;;
5147;SDS011;2592;48.140;7.614;2023-02-08T00:09:00;18.10;;;13.37;;
5147;SDS011;2592;48.140;7.614;2023-02-08T00:11:27;15.20;;;12.43;;
5147;SDS011;2592;48.140;7.614;2023-02-08T00:13:54;21.53;;;13.27;;
5147;SDS011;2592;48.140;7.614;2023-02-08T00:16:21;18.27;;;13.93;;
5147;SDS011;2592;48.140;7.614;2023-02-08T00:18:48;29.33;;;19.97;;
5147;SDS011;2592;48.140;7.614;2023-02-08T00:21:15;31.60;;;21.53;;
5147;SDS011;2592;48.140;7.614;2023-02-08T00:23:41;18.00;;;13.27;;
5147;SDS011;2592;48.140;7.614;2023-02-08T00:26:08;12.33;;;10.87;;
5147;SDS011;2592;48.140;7.614;2023-02-08T00:28:34;13.50;;;11.47;;
5147;SDS011;2592;48.140;7.614;2023-02-08T00:31:01;14.60;;;10.57;;
5147;SDS011;2592;48.140;7.614;2023-02-08T00:33:29;16.30;;;11.97;;
5147;SDS011;2592;48.140;7.614;2023-02-08T00:35:57;13.83;;;11.63;;
5147;SDS011;2592;48.140;7.614;2023-02-08T00:38:23;15.23;;;10.67;;
5147;SDS011;2592;48.140;7.614;2023-02-08T00:40:49;14.03;;;11.30;;
5147;SDS011;2592;48.140;7.614;2023-02-08T00:43:16;16.63;;;11.37;;
5147;SDS011;2592;48.140;7.614;2023-02-08T00:45:42;15.33;;;11.70;;
5147;SDS011;2592;48.140;7.614;2023-02-08T00:48:09;13.57;;;11.07;;
5147;SDS011;2592;48.140;7.614;2023-02-08T00:50:36;14.97;;;11.83;;
5147;SDS011;2592;48.140;7.614;2023-02-08T00:53:03;16.47;;;11.53;;
5147;SDS011;2592;48.140;7.614;2023-02-08T00:55:29;13.50;;;10.90;;
5147;SDS011;2592;48.140;7.614;2023-02-08T00:57:55;14.23;;;11.67;;
5147;SDS011;2592;48.140;7.614;2023-02-08T01:00:22;18.60;;;11.80;;
5147;SDS011;2592;48.140;7.614;2023-02-08T01:02:48;14.30;;;10.73;;
5147;SDS011;2592;48.140;7.614;2023-02-08T01:05:15;15.70;;;12.00;;
5147;SDS011;2592;48.140;7.614;2023-02-08T01:07:42;17.13;;;12.20;;
5147;SDS011;2592;48.140;7.614;2023-02-08T01:10:09;16.57;;;12.57;;
5147;SDS011;2592;48.140;7.614;2023-02-08T01:12:37;16.10;;;12.23;;
5147;SDS011;2592;48.140;7.614;2023-02-08T01:15:03;16.57;;;12.33;;
5147;SDS011;2592;48.140;7.614;2023-02-08T01:17:30;14.67;;;11.87;;
5147;SDS011;2592;48.140;7.614;2023-02-08T01:19:56;15.63;;;11.73;;
5147;SDS011;2592;48.140;7.614;2023-02-08T01:22:22;13.73;;;11.10;;
5147;SDS011;2592;48.140;7.614;2023-02-08T01:24:50;14.87;;;11.60;;
5147;SDS011;2592;48.140;7.614;2023-02-08T01:27:17;19.90;;;12.10;;
5147;SDS011;2592;48.140;7.614;2023-02-08T01:29:43;13.33;;;10.80;;
5147;SDS011;2592;48.140;7.614;2023-02-08T01:32:09;13.67;;;10.60;;
5147;SDS011;2592;48.140;7.614;2023-02-08T01:34:36;11.47;;;10.27;;
5147;SDS011;2592;48.140;7.614;2023-02-08T01:37:02;13.13;;;10.87;;
5147;SDS011;2592;48.140;7.614;2023-02-08T01:39:29;19.93;;;10.80;;
5147;SDS011;2592;48.140;7.614;2023-02-08T01:41:56;12.90;;;11.03;;
5147;SDS011;2592;48.140;7.614;2023-02-08T01:47:08;15.60;;;11.50;;
5147;SDS011;2592;48.140;7.614;2023-02-08T01:49:34;12.30;;;10.10;;
5147;SDS011;2592;48.140;7.614;2023-02-08T01:52:02;12.40;;;10.60;;
5147;SDS011;2592;48.140;7.614;2023-02-08T01:54:29;15.70;;;11.70;;
5147;SDS011;2592;48.140;7.614;2023-02-08T01:56:58;15.17;;;11.63;;
5147;SDS011;2592;48.140;7.614;2023-02-08T01:59:25;16.67;;;11.93;;
5147;SDS011;2592;48.140;7.614;2023-02-08T02:01:52;15.80;;;12.00;;
5147;SDS011;2592;48.140;7.614;2023-02-08T02:04:20;15.17;;;11.33;;
5147;SDS011;2592;48.140;7.614;2023-02-08T02:06:47;15.20;;;11.50;;
5147;SDS011;2592;48.140;7.614;2023-02-08T02:09:16;16.37;;;12.33;;
5147;SDS011;2592;48.140;7.614;2023-02-08T02:11:43;12.57;;;10.30;;
5147;SDS011;2592;48.140;7.614;2023-02-08T02:14:11;12.33;;;10.27;;
5147;SDS011;2592;48.140;7.614;2023-02-08T02:16:37;13.93;;;11.00;;
5147;SDS011;2592;48.140;7.614;2023-02-08T02:19:04;12.47;;;9.60;;
5147;SDS011;2592;48.140;7.614;2023-02-08T02:21:41;14.43;;;10.20;;
5147;SDS011;2592;48.140;7.614;2023-02-08T02:24:14;11.20;;;9.13;;
5147;SDS011;2592;48.140;7.614;2023-02-08T02:26:50;12.40;;;10.30;;
5147;SDS011;2592;48.140;7.614;2023-02-08T02:29:31;12.43;;;10.37;;
5147;SDS011;2592;48.140;7.614;2023-02-08T02:32:04;12.03;;;10.27;;
5147;SDS011;2592;48.140;7.614;2023-02-08T02:34:33;11.50;;;10.03;;
5147;SDS011;2592;48.140;7.614;2023-02-08T02:37:03;11.13;;;9.93;;
5147;SDS011;2592;48.140;7.614;2023-02-08T02:39:33;12.27;;;10.27;;
5147;SDS011;2592;48.140;7.614;2023-02-08T02:42:02;13.50;;;10.40;;
5147;SDS011;2592;48.140;7.614;2023-02-08T02:44:51;12.80;;;10.90;;
5147;SDS011;2592;48.140;7.614;2023-02-08T02:47:23;11.47;;;9.63;;
5147;SDS011;2592;48.140;7.614;2023-02-08T02:49:51;12.40;;;10.40;;
5147;SDS011;2592;48.140;7.614;2023-02-08T02:52:19;14.30;;;10.77;;
5147;SDS011;2592;48.140;7.614;2023-02-08T02:54:50;12.83;;;10.97;;
5147;SDS011;2592;48.140;7.614;2023-02-08T02:57:18;11.40;;;10.00;;
5147;SDS011;2592;48.140;7.614;2023-02-08T02:59:46;15.73;;;10.90;;
5147;SDS011;2592;48.140;7.614;2023-02-08T03:02:13;12.03;;;10.20;;
5147;SDS011;2592;48.140;7.614;2023-02-08T03:04:51;15.07;;;11.60;;
5147;SDS011;2592;48.140;7.614;2023-02-08T03:07:23;15.30;;;10.50;;
5147;SDS011;2592;48.140;7.614;2023-02-08T03:09:57;17.80;;;10.50;;
5147;SDS011;2592;48.140;7.614;2023-02-08T03:12:33;13.00;;;10.50;;
5147;SDS011;2592;48.140;7.614;2023-02-08T03:15:04;12.87;;;10.67;;
5147;SDS011;2592;48.140;7.614;2023-02-08T03:17:38;16.27;;;11.80;;
5147;SDS011;2592;48.140;7.614;2023-02-08T03:20:09;12.10;;;10.20;;
5147;SDS011;2592;48.140;7.614;2023-02-08T03:22:42;14.20;;;11.50;;
5147;SDS011;2592;48.140;7.614;2023-02-08T03:25:10;12.40;;;11.10;;
5147;SDS011;2592;48.140;7.614;2023-02-08T03:27:38;15.67;;;12.03;;
5147;SDS011;2592;48.140;7.614;2023-02-08T03:30:07;13.40;;;10.10;;
5147;SDS011;2592;48.140;7.614;2023-02-08T03:32:37;15.90;;;11.57;;
5147;SDS011;2592;48.140;7.614;2023-02-08T03:35:06;16.10;;;11.27;;
5147;SDS011;2592;48.140;7.614;2023-02-08T03:37:36;14.93;;;11.17;;
5147;SDS011;2592;48.140;7.614;2023-02-08T03:40:05;13.97;;;12.30;;
5147;SDS011;2592;48.140;7.614;2023-02-08T03:42:32;14.10;;;11.50;;
5147;SDS011;2592;48.140;7.614;2023-02-08T03:45:01;14.30;;;10.80;;
5147;SDS011;2592;48.140;7.614;2023-02-08T03:47:31;14.93;;;11.63;;
5147;SDS011;2592;48.140;7.614;2023-02-08T03:50:00;14.37;;;11.70;;
5147;SDS011;2592;48.140;7.614;2023-02-08T03:52:27;16.80;;;12.43;;
5147;SDS011;2592;48.140;7.614;2023-02-08T03:54:58;15.23;;;12.17;;
5147;SDS011;2592;48.140;7.614;2023-02-08T03:57:26;15.23;;;12.67;;
5147;SDS011;2592;48.140;7.614;2023-02-08T03:59:54;18.57;;;11.57;;
5147;SDS011;2592;48.140;7.614;2023-02-08T04:02:22;16.50;;;12.33;;
5147;SDS011;2592;48.140;7.614;2023-02-08T04:04:51;16.13;;;12.37;;
5147;SDS011;2592;48.140;7.614;2023-02-08T04:07:18;18.80;;;12.27;;
5147;SDS011;2592;48.140;7.614;2023-02-08T04:09:44;15.33;;;12.17;;
5147;SDS011;2592;48.140;7.614;2023-02-08T04:12:12;18.13;;;12.43;;
5147;SDS011;2592;48.140;7.614;2023-02-08T04:14:39;15.23;;;11.60;;
5147;SDS011;2592;48.140;7.614;2023-02-08T04:17:06;15.00;;;11.80;;
5147;SDS011;2592;48.140;7.614;2023-02-08T04:19:32;18.20;;;13.87;;
5147;SDS011;2592;48.140;7.614;2023-02-08T04:21:58;17.67;;;13.07;;
5147;SDS011;2592;48.140;7.614;2023-02-08T04:24:25;15.60;;;13.00;;
5147;SDS011;2592;48.140;7.614;2023-02-08T04:26:51;18.07;;;12.50;;
5147;SDS011;2592;48.140;7.614;2023-02-08T04:29:19;20.47;;;15.57;;
5147;SDS011;2592;48.140;7.614;2023-02-08T04:31:45;15.57;;;12.73;;
5147;SDS011;2592;48.140;7.614;2023-02-08T04:34:12;16.17;;;11.73;;
5147;SDS011;2592;48.140;7.614;2023-02-08T04:36:38;13.77;;;12.07;;
5147;SDS011;2592;48.140;7.614;2023-02-08T04:39:05;14.23;;;12.03;;
5147;SDS011;2592;48.140;7.614;2023-02-08T04:41:31;16.27;;;12.70;;
5147;SDS011;2592;48.140;7.614;2023-02-08T04:43:57;13.20;;;11.80;;
5147;SDS011;2592;48.140;7.614;2023-02-08T04:46:25;14.13;;;11.70;;
5147;SDS011;2592;48.140;7.614;2023-02-08T04:48:51;13.70;;;11.60;;
5147;SDS011;2592;48.140;7.614;2023-02-08T04:51:18;14.17;;;12.13;;
5147;SDS011;2592;48.140;7.614;2023-02-08T04:53:44;14.23;;;12.13;;
5147;SDS011;2592;48.140;7.614;2023-02-08T04:56:11;15.70;;;13.73;;
5147;SDS011;2592;48.140;7.614;2023-02-08T04:58:37;14.40;;;11.67;;
5147;SDS011;2592;48.140;7.614;2023-02-08T05:01:04;18.20;;;11.13;;
5147;SDS011;2592;48.140;7.614;2023-02-08T05:03:32;13.30;;;11.30;;
5147;SDS011;2592;48.140;7.614;2023-02-08T05:05:58;17.40;;;12.30;;
5147;SDS011;2592;48.140;7.614;2023-02-08T05:08:25;12.77;;;11.40;;
5147;SDS011;2592;48.140;7.614;2023-02-08T05:10:52;15.60;;;11.40;;
5147;SDS011;2592;48.140;7.614;2023-02-08T05:13:18;15.80;;;12.10;;
5147;SDS011;2592;48.140;7.614;2023-02-08T05:15:45;12.07;;;10.53;;
5147;SDS011;2592;48.140;7.614;2023-02-08T05:18:11;16.27;;;12.77;;
5147;SDS011;2592;48.140;7.614;2023-02-08T05:20:39;14.50;;;11.37;;
5147;SDS011;2592;48.140;7.614;2023-02-08T05:23:05;13.37;;;11.47;;
5147;SDS011;2592;48.140;7.614;2023-02-08T05:25:32;15.50;;;11.40;;
5147;SDS011;2592;48.140;7.614;2023-02-08T05:27:58;16.37;;;11.70;;
5147;SDS011;2592;48.140;7.614;2023-02-08T05:30:25;13.40;;;11.27;;
5147;SDS011;2592;48.140;7.614;2023-02-08T05:32:51;16.47;;;12.33;;
5147;SDS011;2592;48.140;7.614;2023-02-08T05:35:17;15.23;;;13.03;;
5147;SDS011;2592;48.140;7.614;2023-02-08T05:37:45;18.30;;;13.67;;
5147;SDS011;2592;48.140;7.614;2023-02-08T05:40:11;17.17;;;13.37;;
5147;SDS011;2592;48.140;7.614;2023-02-08T05:42:38;21.40;;;14.10;;
5147;SDS011;2592;48.140;7.614;2023-02-08T05:45:06;18.30;;;12.60;;
5147;SDS011;2592;48.140;7.614;2023-02-08T05:47:33;14.07;;;12.10;;
5147;SDS011;2592;48.140;7.614;2023-02-08T05:49:59;15.93;;;10.80;;
5147;SDS011;2592;48.140;7.614;2023-02-08T05:52:25;16.13;;;12.60;;
5147;SDS011;2592;48.140;7.614;2023-02-08T05:54:53;14.53;;;12.93;;
5147;SDS011;2592;48.140;7.614;2023-02-08T05:57:20;14.33;;;12.40;;
5147;SDS011;2592;48.140;7.614;2023-02-08T05:59:46;14.90;;;12.13;;
5147;SDS011;2592;48.140;7.614;2023-02-08T06:02:12;13.43;;;10.77;;
5147;SDS011;2592;48.140;7.614;2023-02-08T06:04:39;13.13;;;11.73;;
5147;SDS011;2592;48.140;7.614;2023-02-08T06:07:05;15.40;;;11.53;;
5147;SDS011;2592;48.140;7.614;2023-02-08T06:09:32;15.33;;;11.37;;
5147;SDS011;2592;48.140;7.614;2023-02-08T06:11:59;15.07;;;12.50;;
5147;SDS011;2592;48.140;7.614;2023-02-08T06:14:26;16.57;;;11.50;;
5147;SDS011;2592;48.140;7.614;2023-02-08T06:16:52;13.90;;;11.40;;
5147;SDS011;2592;48.140;7.614;2023-02-08T06:19:18;13.90;;;11.93;;
5147;SDS011;2592;48.140;7.614;2023-02-08T06:21:45;15.43;;;11.57;;
5147;SDS011;2592;48.140;7.614;2023-02-08T06:24:11;11.97;;;10.77;;
5147;SDS011;2592;48.140;7.614;2023-02-08T06:26:38;13.70;;;12.20;;
5147;SDS011;2592;48.140;7.614;2023-02-08T06:29:06;15.87;;;12.70;;
5147;SDS011;2592;48.140;7.614;2023-02-08T06:31:32;15.30;;;13.20;;
5147;SDS011;2592;48.140;7.614;2023-02-08T06:33:58;15.60;;;12.37;;
5147;SDS011;2592;48.140;7.614;2023-02-08T06:36:25;14.97;;;12.00;;
5147;SDS011;2592;48.140;7.614;2023-02-08T06:38:51;124.53;;;71.53;;
5147;SDS011;2592;48.140;7.614;2023-02-08T06:41:18;119.80;;;70.20;;
5147;SDS011;2592;48.140;7.614;2023-02-08T06:43:44;24.20;;;17.57;;
5147;SDS011;2592;48.140;7.614;2023-02-08T06:46:12;14.63;;;11.70;;
5147;SDS011;2592;48.140;7.614;2023-02-08T06:48:38;13.23;;;10.27;;
5147;SDS011;2592;48.140;7.614;2023-02-08T06:51:05;18.40;;;12.93;;
5147;SDS011;2592;48.140;7.614;2023-02-08T06:53:31;27.83;;;18.47;;
5147;SDS011;2592;48.140;7.614;2023-02-08T06:55:57;28.93;;;20.27;;
5147;SDS011;2592;48.140;7.614;2023-02-08T06:58:24;31.80;;;22.00;;
5147;SDS011;2592;48.140;7.614;2023-02-08T07:00:50;37.30;;;31.40;;
5147;SDS011;2592;48.140;7.614;2023-02-08T07:03:18;34.00;;;30.10;;
5147;SDS011;2592;48.140;7.614;2023-02-08T07:05:46;19.30;;;16.47;;
5147;SDS011;2592;48.140;7.614;2023-02-08T07:08:12;15.50;;;12.10;;
5147;SDS011;2592;48.140;7.614;2023-02-08T07:10:39;15.40;;;12.97;;
5147;SDS011;2592;48.140;7.614;2023-02-08T07:13:05;21.47;;;18.13;;
5147;SDS011;2592;48.140;7.614;2023-02-08T07:15:32;34.80;;;28.13;;
5147;SDS011;2592;48.140;7.614;2023-02-08T07:17:59;19.10;;;16.40;;
5147;SDS011;2592;48.140;7.614;2023-02-08T07:20:27;29.17;;;25.70;;
5147;SDS011;2592;48.140;7.614;2023-02-08T07:22:54;18.53;;;15.60;;
5147;SDS011;2592;48.140;7.614;2023-02-08T07:25:20;18.57;;;14.73;;
5147;SDS011;2592;48.140;7.614;2023-02-08T07:27:47;16.10;;;12.10;;
5147;SDS011;2592;48.140;7.614;2023-02-08T07:30:13;15.70;;;12.20;;
5147;SDS011;2592;48.140;7.614;2023-02-08T07:32:39;15.83;;;12.00;;
5147;SDS011;2592;48.140;7.614;2023-02-08T07:35:06;14.80;;;11.67;;
5147;SDS011;2592;48.140;7.614;2023-02-08T07:37:34;15.17;;;11.07;;
5147;SDS011;2592;48.140;7.614;2023-02-08T07:40:00;17.27;;;10.53;;
5147;SDS011;2592;48.140;7.614;2023-02-08T07:42:27;17.00;;;11.67;;
5147;SDS011;2592;48.140;7.614;2023-02-08T07:44:53;21.80;;;16.27;;
5147;SDS011;2592;48.140;7.614;2023-02-08T07:47:19;24.20;;;16.90;;
5147;SDS011;2592;48.140;7.614;2023-02-08T07:49:46;33.27;;;24.97;;
5147;SDS011;2592;48.140;7.614;2023-02-08T07:52:12;27.60;;;20.23;;
5147;SDS011;2592;48.140;7.614;2023-02-08T07:54:40;21.03;;;16.57;;
5147;SDS011;2592;48.140;7.614;2023-02-08T07:57:06;22.30;;;17.83;;
5147;SDS011;2592;48.140;7.614;2023-02-08T07:59:33;20.73;;;16.67;;
5147;SDS011;2592;48.140;7.614;2023-02-08T08:01:59;17.40;;;13.53;;
5147;SDS011;2592;48.140;7.614;2023-02-08T08:04:26;15.67;;;12.67;;
5147;SDS011;2592;48.140;7.614;2023-02-08T08:06:52;15.47;;;12.67;;
5147;SDS011;2592;48.140;7.614;2023-02-08T08:09:18;16.97;;;11.90;;
5147;SDS011;2592;48.140;7.614;2023-02-08T08:11:46;16.73;;;12.23;;
5147;SDS011;2592;48.140;7.614;2023-02-08T08:14:13;12.20;;;10.80;;
5147;SDS011;2592;48.140;7.614;2023-02-08T08:16:39;16.67;;;12.23;;
5147;SDS011;2592;48.140;7.614;2023-02-08T08:19:07;14.57;;;11.20;;
5147;SDS011;2592;48.140;7.614;2023-02-08T08:21:34;14.13;;;11.47;;
5147;SDS011;2592;48.140;7.614;2023-02-08T08:24:00;15.77;;;11.60;;
5147;SDS011;2592;48.140;7.614;2023-02-08T08:26:26;14.00;;;11.30;;
5147;SDS011;2592;48.140;7.614;2023-02-08T08:28:55;15.60;;;12.13;;
5147;SDS011;2592;48.140;7.614;2023-02-08T08:31:21;23.60;;;12.10;;
5147;SDS011;2592;48.140;7.614;2023-02-08T08:33:48;15.30;;;11.77;;
5147;SDS011;2592;48.140;7.614;2023-02-08T08:36:14;13.23;;;10.77;;
5147;SDS011;2592;48.140;7.614;2023-02-08T08:38:41;15.17;;;10.87;;
5147;SDS011;2592;48.140;7.614;2023-02-08T08:41:07;27.67;;;19.70;;
5147;SDS011;2592;48.140;7.614;2023-02-08T08:43:34;23.00;;;14.90;;
5147;SDS011;2592;48.140;7.614;2023-02-08T08:46:03;19.33;;;11.60;;
5147;SDS011;2592;48.140;7.614;2023-02-08T08:48:29;13.20;;;10.73;;
5147;SDS011;2592;48.140;7.614;2023-02-08T08:50:56;12.33;;;10.00;;
5147;SDS011;2592;48.140;7.614;2023-02-08T08:53:22;14.33;;;10.93;;
5147;SDS011;2592;48.140;7.614;2023-02-08T08:55:49;17.47;;;12.10;;
5147;SDS011;2592;48.140;7.614;2023-02-08T08:58:16;13.13;;;11.13;;
5147;SDS011;2592;48.140;7.614;2023-02-08T09:00:42;13.43;;;10.93;;
5147;SDS011;2592;48.140;7.614;2023-02-08T09:03:10;14.80;;;11.10;;
5147;SDS011;2592;48.140;7.614;2023-02-08T09:05:36;12.27;;;9.97;;
5147;SDS011;2592;48.140;7.614;2023-02-08T09:08:03;12.90;;;11.17;;
5147;SDS011;2592;48.140;7.614;2023-02-08T09:10:29;15.33;;;12.10;;
5147;SDS011;2592;48.140;7.614;2023-02-08T09:12:56;12.30;;;10.23;;
5147;SDS011;2592;48.140;7.614;2023-02-08T09:15:22;15.57;;;11.50;;
5147;SDS011;2592;48.140;7.614;2023-02-08T09:17:48;14.73;;;10.63;;
5147;SDS011;2592;48.140;7.614;2023-02-08T09:20:16;15.07;;;11.20;;
5147;SDS011;2592;48.140;7.614;2023-02-08T09:22:43;13.03;;;11.00;;
5147;SDS011;2592;48.140;7.614;2023-02-08T09:25:09;12.33;;;10.77;;
5147;SDS011;2592;48.140;7.614;2023-02-08T09:27:35;13.53;;;9.80;;
5147;SDS011;2592;48.140;7.614;2023-02-08T09:30:02;14.67;;;11.50;;
5147;SDS011;2592;48.140;7.614;2023-02-08T09:32:30;14.80;;;11.40;;
5147;SDS011;2592;48.140;7.614;2023-02-08T09:34:58;15.57;;;11.07;;
5147;SDS011;2592;48.140;7.614;2023-02-08T09:37:25;14.97;;;10.50;;
5147;SDS011;2592;48.140;7.614;2023-02-08T09:39:52;15.70;;;11.40;;
5147;SDS011;2592;48.140;7.614;2023-02-08T09:42:21;16.03;;;10.93;;
5147;SDS011;2592;48.140;7.614;2023-02-08T09:44:54;14.00;;;11.50;;
5147;SDS011;2592;48.140;7.614;2023-02-08T09:47:27;14.57;;;11.07;;
5147;SDS011;2592;48.140;7.614;2023-02-08T09:49:55;15.53;;;11.23;;
5147;SDS011;2592;48.140;7.614;2023-02-08T09:52:23;12.57;;;10.20;;
5147;SDS011;2592;48.140;7.614;2023-02-08T09:54:53;15.27;;;11.13;;
5147;SDS011;2592;48.140;7.614;2023-02-08T09:57:24;12.80;;;9.70;;
5147;SDS011;2592;48.140;7.614;2023-02-08T09:59:53;27.23;;;10.63;;
5147;SDS011;2592;48.140;7.614;2023-02-08T10:02:22;11.90;;;9.43;;
5147;SDS011;2592;48.140;7.614;2023-02-08T10:04:53;14.77;;;10.57;;
5147;SDS011;2592;48.140;7.614;2023-02-08T10:07:20;20.43;;;10.60;;
5147;SDS011;2592;48.140;7.614;2023-02-08T10:09:46;11.67;;;9.30;;
5147;SDS011;2592;48.140;7.614;2023-02-08T10:12:16;13.20;;;11.27;;
5147;SDS011;2592;48.140;7.614;2023-02-08T10:14:48;13.67;;;10.77;;
5147;SDS011;2592;48.140;7.614;2023-02-08T10:17:33;13.80;;;10.23;;
5147;SDS011;2592;48.140;7.614;2023-02-08T10:20:02;14.80;;;10.93;;
5147;SDS011;2592;48.140;7.614;2023-02-08T10:22:34;12.63;;;10.00;;
5147;SDS011;2592;48.140;7.614;2023-02-08T10:25:16;14.17;;;11.23;;
5147;SDS011;2592;48.140;7.614;2023-02-08T10:27:48;11.57;;;9.33;;
5147;SDS011;2592;48.140;7.614;2023-02-08T10:30:19;13.87;;;10.10;;
5147;SDS011;2592;48.140;7.614;2023-02-08T10:32:53;12.70;;;9.30;;
5147;SDS011;2592;48.140;7.614;2023-02-08T10:35:22;13.97;;;10.37;;
5147;SDS011;2592;48.140;7.614;2023-02-08T10:37:49;14.03;;;10.03;;
5147;SDS011;2592;48.140;7.614;2023-02-08T10:40:20;13.53;;;9.60;;
5147;SDS011;2592;48.140;7.614;2023-02-08T10:42:50;11.40;;;9.80;;
5147;SDS011;2592;48.140;7.614;2023-02-08T10:45:21;13.13;;;10.20;;
5147;SDS011;2592;48.140;7.614;2023-02-08T10:47:50;11.63;;;9.77;;
5147;SDS011;2592;48.140;7.614;2023-02-08T10:50:19;12.77;;;9.50;;
5147;SDS011;2592;48.140;7.614;2023-02-08T10:52:48;13.10;;;10.90;;
5147;SDS011;2592;48.140;7.614;2023-02-08T10:55:15;11.93;;;9.60;;
5147;SDS011;2592;48.140;7.614;2023-02-08T10:57:42;12.57;;;10.30;;
5147;SDS011;2592;48.140;7.614;2023-02-08T11:00:12;14.13;;;11.13;;
5147;SDS011;2592;48.140;7.614;2023-02-08T11:02:43;14.63;;;10.03;;
5147;SDS011;2592;48.140;7.614;2023-02-08T11:05:14;13.77;;;9.60;;
5147;SDS011;2592;48.140;7.614;2023-02-08T11:07:42;12.17;;;9.90;;
5147;SDS011;2592;48.140;7.614;2023-02-08T11:12:53;12.90;;;9.37;;
5147;SDS011;2592;48.140;7.614;2023-02-08T11:15:22;14.37;;;9.83;;
5147;SDS011;2592;48.140;7.614;2023-02-08T11:17:53;11.80;;;9.93;;
5147;SDS011;2592;48.140;7.614;2023-02-08T11:20:21;11.30;;;9.00;;
5147;SDS011;2592;48.140;7.614;2023-02-08T11:22:50;12.83;;;9.80;;
5147;SDS011;2592;48.140;7.614;2023-02-08T11:25:29;11.10;;;9.30;;
5147;SDS011;2592;48.140;7.614;2023-02-08T11:27:55;13.10;;;9.40;;
5147;SDS011;2592;48.140;7.614;2023-02-08T11:30:25;14.67;;;9.63;;
5147;SDS011;2592;48.140;7.614;2023-02-08T11:35:37;13.03;;;9.63;;
5147;SDS011;2592;48.140;7.614;2023-02-08T11:38:05;16.30;;;9.93;;
5147;SDS011;2592;48.140;7.614;2023-02-08T11:40:33;12.10;;;10.03;;
5147;SDS011;2592;48.140;7.614;2023-02-08T11:42:59;12.00;;;9.57;;
5147;SDS011;2592;48.140;7.614;2023-02-08T11:45:28;12.20;;;9.70;;
5147;SDS011;2592;48.140;7.614;2023-02-08T11:47:55;19.40;;;9.60;;
5147;SDS011;2592;48.140;7.614;2023-02-08T11:50:22;14.07;;;9.47;;
5147;SDS011;2592;48.140;7.614;2023-02-08T11:52:50;12.00;;;9.03;;
5147;SDS011;2592;48.140;7.614;2023-02-08T11:55:22;12.83;;;9.57;;
5147;SDS011;2592;48.140;7.614;2023-02-08T11:57:50;14.90;;;9.50;;
5147;SDS011;2592;48.140;7.614;2023-02-08T12:00:18;13.23;;;9.63;;
5147;SDS011;2592;48.140;7.614;2023-02-08T12:02:46;13.70;;;9.23;;
5147;SDS011;2592;48.140;7.614;2023-02-08T12:05:15;14.10;;;10.30;;
5147;SDS011;2592;48.140;7.614;2023-02-08T12:07:45;14.20;;;9.97;;
5147;SDS011;2592;48.140;7.614;2023-02-08T12:10:27;13.43;;;9.80;;
5147;SDS011;2592;48.140;7.614;2023-02-08T12:12:59;10.70;;;9.57;;
5147;SDS011;2592;48.140;7.614;2023-02-08T12:15:31;15.90;;;10.10;;
5147;SDS011;2592;48.140;7.614;2023-02-08T12:18:10;13.20;;;9.80;;
5147;SDS011;2592;48.140;7.614;2023-02-08T12:20:39;10.17;;;8.70;;
5147;SDS011;2592;48.140;7.614;2023-02-08T12:25:54;13.00;;;10.10;;
5147;SDS011;2592;48.140;7.614;2023-02-08T12:28:23;13.40;;;9.87;;
5147;SDS011;2592;48.140;7.614;2023-02-08T12:30:52;10.43;;;8.30;;
5147;SDS011;2592;48.140;7.614;2023-02-08T12:33:29;14.23;;;8.93;;
5147;SDS011;2592;48.140;7.614;2023-02-08T12:36:09;12.03;;;9.30;;
5147;SDS011;2592;48.140;7.614;2023-02-08T12:38:50;14.80;;;9.93;;
5147;SDS011;2592;48.140;7.614;2023-02-08T12:41:38;18.07;;;12.20;;
5147;SDS011;2592;48.140;7.614;2023-02-08T12:44:06;13.57;;;10.43;;
5147;SDS011;2592;48.140;7.614;2023-02-08T12:46:43;10.90;;;7.90;;
5147;SDS011;2592;48.140;7.614;2023-02-08T12:52:08;17.40;;;10.53;;
5147;SDS011;2592;48.140;7.614;2023-02-08T12:54:39;11.77;;;8.50;;
5147;SDS011;2592;48.140;7.614;2023-02-08T12:57:08;11.77;;;8.83;;
5147;SDS011;2592;48.140;7.614;2023-02-08T12:59:37;11.47;;;9.20;;
5147;SDS011;2592;48.140;7.614;2023-02-08T13:02:08;14.00;;;9.97;;
5147;SDS011;2592;48.140;7.614;2023-02-08T13:04:37;14.50;;;8.23;;
5147;SDS011;2592;48.140;7.614;2023-02-08T13:07:09;12.03;;;9.30;;
5147;SDS011;2592;48.140;7.614;2023-02-08T13:09:38;12.03;;;8.70;;
5147;SDS011;2592;48.140;7.614;2023-02-08T13:12:07;10.80;;;8.73;;
5147;SDS011;2592;48.140;7.614;2023-02-08T13:14:37;12.33;;;9.17;;
5147;SDS011;2592;48.140;7.614;2023-02-08T13:17:10;12.50;;;8.53;;
5147;SDS011;2592;48.140;7.614;2023-02-08T13:19:41;16.23;;;9.30;;
5147;SDS011;2592;48.140;7.614;2023-02-08T13:22:14;9.90;;;8.17;;
5147;SDS011;2592;48.140;7.614;2023-02-08T13:24:42;11.10;;;8.43;;
5147;SDS011;2592;48.140;7.614;2023-02-08T13:27:09;11.97;;;9.30;;
5147;SDS011;2592;48.140;7.614;2023-02-08T13:29:40;12.30;;;9.83;;
5147;SDS011;2592;48.140;7.614;2023-02-08T13:32:07;15.13;;;11.07;;
5147;SDS011;2592;48.140;7.614;2023-02-08T13:34:36;17.17;;;12.57;;
5147;SDS011;2592;48.140;7.614;2023-02-08T13:37:04;13.00;;;9.67;;
5147;SDS011;2592;48.140;7.614;2023-02-08T13:39:34;11.87;;;8.87;;
5147;SDS011;2592;48.140;7.614;2023-02-08T13:42:02;10.47;;;8.33;;
5147;SDS011;2592;48.140;7.614;2023-02-08T13:44:29;13.57;;;8.40;;
5147;SDS011;2592;48.140;7.614;2023-02-08T13:46:56;17.83;;;8.43;;
5147;SDS011;2592;48.140;7.614;2023-02-08T13:52:08;10.00;;;7.50;;
5147;SDS011;2592;48.140;7.614;2023-02-08T13:54:36;15.23;;;7.97;;
5147;SDS011;2592;48.140;7.614;2023-02-08T13:57:03;13.00;;;8.30;;
5147;SDS011;2592;48.140;7.614;2023-02-08T13:59:37;12.90;;;8.77;;
5147;SDS011;2592;48.140;7.614;2023-02-08T14:02:25;12.50;;;8.97;;
5147;SDS011;2592;48.140;7.614;2023-02-08T14:04:52;17.33;;;9.70;;
5147;SDS011;2592;48.140;7.614;2023-02-08T14:07:23;11.10;;;8.00;;
5147;SDS011;2592;48.140;7.614;2023-02-08T14:10:16;13.17;;;8.67;;
5147;SDS011;2592;48.140;7.614;2023-02-08T14:12:45;14.93;;;8.10;;
5147;SDS011;2592;48.140;7.614;2023-02-08T14:15:24;17.23;;;8.70;;
5147;SDS011;2592;48.140;7.614;2023-02-08T14:17:51;15.50;;;9.80;;
5147;SDS011;2592;48.140;7.614;2023-02-08T14:20:20;19.83;;;12.10;;
5147;SDS011;2592;48.140;7.614;2023-02-08T14:22:51;12.83;;;9.40;;
5147;SDS011;2592;48.140;7.614;2023-02-08T14:25:20;15.17;;;10.57;;
5147;SDS011;2592;48.140;7.614;2023-02-08T14:27:49;10.93;;;8.37;;
5147;SDS011;2592;48.140;7.614;2023-02-08T14:30:19;9.43;;;7.57;;
5147;SDS011;2592;48.140;7.614;2023-02-08T14:32:48;11.23;;;7.67;;
5147;SDS011;2592;48.140;7.614;2023-02-08T14:35:17;12.80;;;9.10;;
5147;SDS011;2592;48.140;7.614;2023-02-08T14:37:44;12.00;;;8.90;;
5147;SDS011;2592;48.140;7.614;2023-02-08T14:42:56;12.80;;;8.43;;
5147;SDS011;2592;48.140;7.614;2023-02-08T14:45:27;12.80;;;9.37;;
5147;SDS011;2592;48.140;7.614;2023-02-08T14:47:56;14.03;;;10.37;;
5147;SDS011;2592;48.140;7.614;2023-02-08T14:50:27;11.10;;;8.30;;
5147;SDS011;2592;48.140;7.614;2023-02-08T14:55:42;14.20;;;9.50;;
5147;SDS011;2592;48.140;7.614;2023-02-08T14:58:13;14.17;;;9.43;;
5147;SDS011;2592;48.140;7.614;2023-02-08T15:00:40;10.97;;;9.20;;
5147;SDS011;2592;48.140;7.614;2023-02-08T15:03:11;11.63;;;9.50;;
5147;SDS011;2592;48.140;7.614;2023-02-08T15:05:39;11.73;;;9.03;;
5147;SDS011;2592;48.140;7.614;2023-02-08T15:08:08;19.30;;;9.90;;
5147;SDS011;2592;48.140;7.614;2023-02-08T15:10:34;9.50;;;7.80;;
5147;SDS011;2592;48.140;7.614;2023-02-08T15:13:11;9.90;;;8.63;;
5147;SDS011;2592;48.140;7.614;2023-02-08T15:15:43;10.40;;;8.40;;
5147;SDS011;2592;48.140;7.614;2023-02-08T15:18:14;8.27;;;7.37;;
5147;SDS011;2592;48.140;7.614;2023-02-08T15:20:41;14.40;;;8.30;;